Time;durP1;ratioP1;P1;durP2;ratioP2;P2;SDS_P1;SDS_P2;PMS_P1;PMS_P2;Temp;Humidity;BMP_temperature;BMP_pressure;BME280_temperature;BME280_humidity;BME280_pressure;Samples;Min_cycle;Max_cycle;Signal;HPM_P1;HPM_P2
2023/06/26 00:01:05;;;;;;;11.05;9.43;;;22.10;99.90;;;;;;5070591;28;20220;-60
2023/06/26 00:03:31;;;;;;;11.48;10.25;;;22.80;99.90;;;;;;5064154;28;20094;-60
2023/06/26 00:06:00;;;;;;;15.75;10.82;;;23.00;99.90;;;;;;5066643;28;20040;-60
2023/06/26 00:08:26;;;;;;;12.20;10.45;;;22.90;99.90;;;;;;5075785;28;20063;-60
2023/06/26 00:10:53;;;;;;;11.38;9.27;;;22.60;99.90;;;;;;5072148;28;20024;-60
2023/06/26 00:13:19;;;;;;;14.02;10.60;;;22.80;99.90;;;;;;5078129;28;20070;-60
2023/06/26 00:15:44;;;;;;;12.02;9.70;;;22.70;99.90;;;;;;5076462;28;20036;-60
2023/06/26 00:18:10;;;;;;;12.02;10.23;;;22.70;99.90;;;;;;5075045;28;20028;-60
2023/06/26 00:20:36;;;;;;;11.80;9.88;;;22.50;99.90;;;;;;5060285;28;20028;-60
2023/06/26 00:23:03;;;;;;;15.77;10.85;;;22.80;99.90;;;;;;5070678;28;20037;-60
2023/06/26 00:25:29;;;;;;;11.10;9.80;;;22.50;99.90;;;;;;5081940;28;20040;-60
2023/06/26 00:27:55;;;;;;;11.25;9.65;;;22.60;99.90;;;;;;5071295;28;20024;-60
2023/06/26 00:30:20;;;;;;;10.48;9.00;;;22.60;99.90;;;;;;5076206;28;20024;-61
2023/06/26 00:32:46;;;;;;;10.70;8.98;;;22.10;99.90;;;;;;5067921;28;20064;-60
2023/06/26 00:35:12;;;;;;;12.63;11.00;;;22.40;99.90;;;;;;5072070;28;20293;-60
2023/06/26 00:37:37;;;;;;;12.25;10.38;;;22.60;99.90;;;;;;5079273;28;20025;-60
2023/06/26 00:40:05;;;;;;;13.02;9.38;;;22.40;99.90;;;;;;5066453;28;20029;-60
2023/06/26 00:42:30;;;;;;;13.52;10.30;;;22.80;99.90;;;;;;5039108;28;20051;-60
2023/06/26 00:44:56;;;;;;;12.52;9.85;;;22.80;99.90;;;;;;5079398;28;20085;-60
2023/06/26 00:47:22;;;;;;;11.48;9.75;;;22.70;99.90;;;;;;5073324;28;20024;-60
2023/06/26 00:49:48;;;;;;;11.23;10.02;;;22.70;99.90;;;;;;5073420;28;20044;-60
2023/06/26 00:52:13;;;;;;;12.55;10.55;;;22.30;99.90;;;;;;5080993;28;20025;-60
2023/06/26 00:54:39;;;;;;;14.43;10.20;;;22.70;99.90;;;;;;5073080;28;20241;-60
2023/06/26 00:57:05;;;;;;;11.07;9.85;;;21.90;99.90;;;;;;5072733;28;20092;-60
2023/06/26 00:59:31;;;;;;;12.18;10.73;;;22.20;99.90;;;;;;5054868;28;20068;-60
2023/06/26 01:01:56;;;;;;;12.68;10.60;;;22.60;99.90;;;;;;5073308;28;20035;-60
2023/06/26 01:04:27;;;;;;;11.93;10.13;;;22.80;99.90;;;;;;5077447;28;20028;-60
2023/06/26 01:06:54;;;;;;;11.82;10.15;;;22.70;99.90;;;;;;5071317;28;20236;-60
2023/06/26 01:09:20;;;;;;;12.60;9.70;;;22.70;99.90;;;;;;5075314;28;20314;-60
2023/06/26 01:11:47;;;;;;;13.77;10.38;;;22.50;99.90;;;;;;5066876;28;20227;-60
2023/06/26 01:14:13;;;;;;;12.40;10.50;;;22.30;99.90;;;;;;5078089;28;20028;-60
2023/06/26 01:16:39;;;;;;;10.88;9.05;;;22.60;99.90;;;;;;5052043;28;20033;-60
2023/06/26 01:19:24;;;;;;;21.02;11.20;;;22.60;99.90;;;;;;5067218;28;20047;-60
2023/06/26 01:21:54;;;;;;;11.82;10.55;;;22.50;99.90;;;;;;5049286;28;20085;-59
2023/06/26 01:24:20;;;;;;;13.70;10.70;;;22.60;99.90;;;;;;5072992;28;20037;-59
2023/06/26 01:26:49;;;;;;;14.85;10.90;;;22.50;99.90;;;;;;5054015;28;20044;-60
2023/06/26 01:29:16;;;;;;;13.23;10.85;;;21.90;99.90;;;;;;5052137;28;20028;-59
2023/06/26 01:31:43;;;;;;;11.88;10.10;;;22.30;99.90;;;;;;5072934;28;20028;-60
2023/06/26 01:34:09;;;;;;;13.60;10.38;;;23.80;99.90;;;;;;5062906;28;20041;-59
2023/06/26 01:36:35;;;;;;;11.50;10.05;;;22.30;1.00;;;;;;5079790;28;20155;-60
2023/06/26 01:39:01;;;;;;;12.32;10.20;;;22.20;1.00;;;;;;5070968;28;20025;-60
2023/06/26 01:41:26;;;;;;;14.52;10.88;;;19.90;1.00;;;;;;5055966;28;20377;-60
2023/06/26 01:44:42;;;;;;;11.68;10.48;;;22.90;1.00;;;;;;5051621;23;20584;-81
2023/06/26 01:47:21;;;;;;;;;;;22.30;1.00;;;;;;4983888;28;20125;-81
2023/06/26 01:50:26;;;;;;;12.25;10.82;;;21.90;1.00;;;;;;4964346;28;19917;-80
2023/06/26 01:53:18;;;;;;;12.15;10.32;;;22.70;34.50;;;;;;4961282;28;20220;-78
2023/06/26 01:55:44;;;;;;;13.88;11.57;;;21.50;99.90;;;;;;4998614;23;20035;-62
2023/06/26 01:58:10;;;;;;;14.32;11.77;;;22.30;99.90;;;;;;4984896;28;20053;-61
2023/06/26 02:00:37;;;;;;;12.15;10.85;;;22.10;99.90;;;;;;4987658;28;20038;-62
2023/06/26 02:03:04;;;;;;;13.27;11.85;;;21.50;99.90;;;;;;4983987;28;20042;-61
2023/06/26 02:05:33;;;;;;;15.05;11.43;;;22.50;99.90;;;;;;4983083;28;20053;-62
2023/06/26 02:08:01;;;;;;;14.32;11.55;;;21.50;99.90;;;;;;4984489;28;20096;-62
2023/06/26 02:10:26;;;;;;;13.02;11.25;;;22.20;99.90;;;;;;4989000;28;20042;-61
2023/06/26 02:12:52;;;;;;;15.10;11.95;;;22.40;99.90;;;;;;4985803;28;20065;-62
2023/06/26 02:15:18;;;;;;;13.38;11.93;;;22.30;99.90;;;;;;4987958;28;20068;-61
2023/06/26 02:17:47;;;;;;;14.18;11.93;;;22.20;1.00;;;;;;4979496;28;20049;-62
2023/06/26 02:20:14;;;;;;;14.45;12.20;;;21.30;1.00;;;;;;4985985;28;20030;-62
2023/06/26 02:22:39;;;;;;;14.38;12.27;;;22.40;1.00;;;;;;4965806;28;20443;-62
2023/06/26 02:25:05;;;;;;;13.30;11.75;;;22.10;1.00;;;;;;4982326;28;20038;-62
2023/06/26 02:27:31;;;;;;;14.80;12.43;;;22.10;1.00;;;;;;4980630;28;20064;-61
2023/06/26 02:29:57;;;;;;;12.90;11.50;;;22.40;1.00;;;;;;4986907;28;20455;-62
2023/06/26 02:32:22;;;;;;;15.18;12.85;;;22.10;1.00;;;;;;4989380;28;20182;-62
2023/06/26 02:34:48;;;;;;;14.90;11.30;;;21.60;1.00;;;;;;4981301;28;20031;-62
2023/06/26 02:37:16;;;;;;;14.43;11.82;;;21.70;1.00;;;;;;4971310;28;20048;-61
2023/06/26 02:39:41;;;;;;;13.82;11.02;;;22.30;1.00;;;;;;4977536;28;20038;-62
2023/06/26 02:42:07;;;;;;;13.52;11.60;;;22.50;1.00;;;;;;4989407;28;20034;-62
2023/06/26 02:44:33;;;;;;;15.68;11.95;;;21.90;1.00;;;;;;4986729;28;20046;-62
2023/06/26 02:46:58;;;;;;;13.55;10.57;;;22.50;1.00;;;;;;4989159;28;20053;-62
2023/06/26 02:49:24;;;;;;;11.95;9.80;;;21.60;1.00;;;;;;4987724;28;20037;-61
2023/06/26 02:51:50;;;;;;;12.35;9.30;;;22.50;1.00;;;;;;4984035;28;20039;-61
2023/06/26 02:54:15;;;;;;;12.55;9.43;;;22.50;1.00;;;;;;4986355;28;20081;-61
2023/06/26 02:56:41;;;;;;;13.20;8.60;;;22.50;1.00;;;;;;4983399;28;20042;-62
2023/06/26 02:59:07;;;;;;;13.95;8.50;;;22.20;1.00;;;;;;4985516;28;20046;-61
2023/06/26 03:01:33;;;;;;;13.43;8.63;;;22.20;1.00;;;;;;4980518;28;20270;-61
2023/06/26 03:04:00;;;;;;;11.98;8.07;;;22.00;1.00;;;;;;4967387;28;20053;-62
2023/06/26 03:06:27;;;;;;;13.05;8.70;;;22.20;1.00;;;;;;4965359;28;20061;-61
2023/06/26 03:08:53;;;;;;;12.52;8.60;;;21.90;1.00;;;;;;4981927;28;20053;-62
2023/06/26 03:11:19;;;;;;;12.27;8.73;;;22.10;1.00;;;;;;4986465;28;20034;-62
2023/06/26 03:13:45;;;;;;;14.05;8.25;;;22.20;1.00;;;;;;4987263;28;20035;-62
2023/06/26 03:16:10;;;;;;;12.50;8.38;;;22.30;1.00;;;;;;4978855;28;20128;-61
2023/06/26 03:18:36;;;;;;;12.25;8.95;;;21.00;22.00;;;;;;4976946;28;20400;-61
2023/06/26 03:21:02;;;;;;;12.85;8.35;;;20.90;27.70;;;;;;4989205;28;20041;-62
2023/06/26 03:23:28;;;;;;;14.20;9.52;;;21.50;47.70;;;;;;4980031;28;20039;-62
2023/06/26 03:25:53;;;;;;;12.23;8.95;;;21.90;70.70;;;;;;4983428;28;20049;-62
2023/06/26 03:28:19;;;;;;;16.90;9.32;;;21.00;86.90;;;;;;4983568;28;20043;-62
2023/06/26 03:30:45;;;;;;;17.33;9.93;;;21.90;93.10;;;;;;4958127;28;20236;-61
2023/06/26 03:33:11;;;;;;;16.65;9.95;;;21.00;99.90;;;;;;4986792;28;20030;-62
2023/06/26 03:35:37;;;;;;;17.55;10.30;;;21.20;99.90;;;;;;4984003;28;20062;-62
2023/06/26 03:38:04;;;;;;;13.50;10.48;;;20.90;99.90;;;;;;4986696;28;20037;-61
2023/06/26 03:40:30;;;;;;;18.05;10.35;;;21.80;99.90;;;;;;4981825;28;20122;-62
2023/06/26 03:42:56;;;;;;;15.80;10.27;;;21.70;99.90;;;;;;4982167;28;20121;-62
2023/06/26 03:45:21;;;;;;;17.15;10.02;;;21.20;99.90;;;;;;4976992;28;20179;-62
2023/06/26 03:47:49;;;;;;;20.85;12.77;;;20.70;99.90;;;;;;4985240;28;20035;-63
2023/06/26 03:50:17;;;;;;;21.67;14.07;;;20.20;99.90;;;;;;4990848;28;20057;-61
2023/06/26 03:52:43;;;;;;;22.83;13.98;;;19.70;1.00;;;;;;4988241;28;20117;-60
2023/06/26 03:55:09;;;;;;;22.38;15.90;;;19.20;48.80;;;;;;4991939;28;20121;-60
2023/06/26 03:57:35;;;;;;;25.42;16.45;;;19.00;97.60;;;;;;4989272;28;20046;-61
2023/06/26 04:00:00;;;;;;;27.75;16.98;;;19.20;99.90;;;;;;4989807;28;20039;-63
2023/06/26 04:02:26;;;;;;;29.02;17.48;;;19.10;99.90;;;;;;4980259;28;20133;-63
2023/06/26 04:04:52;;;;;;;27.58;16.83;;;18.00;99.90;;;;;;4991440;28;20038;-63
2023/06/26 04:07:19;;;;;;;24.63;17.77;;;18.70;99.90;;;;;;4985575;28;20034;-63
2023/06/26 04:09:44;;;;;;;28.17;18.85;;;18.90;99.90;;;;;;4985833;28;20040;-64
2023/06/26 04:12:10;;;;;;;28.00;17.58;;;19.00;99.90;;;;;;4987499;28;20061;-64
2023/06/26 04:14:36;;;;;;;24.70;17.15;;;17.90;99.90;;;;;;4969756;28;20046;-64
2023/06/26 04:17:03;;;;;;;26.23;18.00;;;19.30;99.90;;;;;;4951530;28;20046;-64
2023/06/26 04:19:29;;;;;;;24.73;16.67;;;19.10;99.90;;;;;;4983314;28;20034;-64
2023/06/26 04:21:55;;;;;;;23.20;15.00;;;19.20;99.90;;;;;;4989169;28;20038;-65
2023/06/26 04:24:21;;;;;;;21.27;13.98;;;19.20;99.90;;;;;;4986854;28;20085;-65
2023/06/26 04:26:47;;;;;;;22.48;13.15;;;19.00;99.90;;;;;;4982605;28;20480;-65
2023/06/26 04:29:12;;;;;;;21.17;11.25;;;19.20;99.90;;;;;;4980149;28;20179;-65
2023/06/26 04:31:39;;;;;;;21.83;11.88;;;18.40;99.90;;;;;;4983137;28;20042;-65
2023/06/26 04:34:05;;;;;;;18.65;10.98;;;18.20;99.90;;;;;;4970725;28;20048;-65
2023/06/26 04:36:31;;;;;;;19.58;10.38;;;18.00;99.90;;;;;;4988608;28;20129;-65
2023/06/26 04:38:58;;;;;;;21.00;7.97;;;17.80;99.90;;;;;;4977517;28;20041;-65
2023/06/26 04:41:24;;;;;;;17.67;8.05;;;17.90;99.90;;;;;;4974517;28;20042;-66
2023/06/26 04:43:50;;;;;;;18.45;8.27;;;17.80;99.90;;;;;;4987969;28;20038;-65
2023/06/26 04:46:16;;;;;;;16.73;6.03;;;18.20;99.90;;;;;;4992479;28;20045;-65
2023/06/26 04:48:44;;;;;;;16.63;6.13;;;18.30;99.90;;;;;;4989891;28;20402;-65
2023/06/26 04:51:10;;;;;;;15.63;6.07;;;18.30;99.90;;;;;;4974688;28;20444;-65
2023/06/26 04:53:36;;;;;;;14.75;5.93;;;18.00;99.90;;;;;;4992351;28;20053;-64
2023/06/26 04:56:02;;;;;;;17.52;5.57;;;18.60;99.90;;;;;;4994174;28;20420;-65
2023/06/26 04:58:27;;;;;;;17.75;6.38;;;18.00;99.90;;;;;;4978051;28;20346;-65
2023/06/26 05:00:53;;;;;;;15.57;6.40;;;17.90;99.90;;;;;;4979868;28;20048;-65
2023/06/26 05:03:21;;;;;;;17.83;5.40;;;18.20;99.90;;;;;;4984207;28;20220;-65
2023/06/26 05:05:47;;;;;;;15.77;6.18;;;17.90;99.90;;;;;;4961126;28;20043;-65
2023/06/26 05:08:24;;;;;;;18.77;5.93;;;17.80;99.90;;;;;;4972479;28;20484;-65
2023/06/26 05:10:49;;;;;;;14.65;4.75;;;18.50;99.90;;;;;;4976952;28;21253;-65
2023/06/26 05:13:17;;;;;;;15.05;5.97;;;18.20;99.90;;;;;;4990165;28;20555;-67
2023/06/26 05:15:46;;;;;;;19.98;6.10;;;18.00;99.90;;;;;;4982242;28;20408;-64
2023/06/26 05:18:12;;;;;;;14.88;5.03;;;17.90;99.90;;;;;;4984271;28;20042;-64
2023/06/26 05:20:38;;;;;;;17.33;6.57;;;17.90;99.90;;;;;;4981846;28;20525;-65
2023/06/26 05:23:04;;;;;;;13.70;5.15;;;18.70;99.90;;;;;;4989744;28;20042;-64
2023/06/26 05:25:31;;;;;;;13.27;6.20;;;18.60;99.90;;;;;;4988829;28;20527;-63
2023/06/26 05:27:58;;;;;;;16.15;5.50;;;18.50;99.90;;;;;;4986654;28;20510;-63
2023/06/26 05:30:25;;;;;;;14.55;4.82;;;17.70;99.90;;;;;;4988464;28;20031;-63
2023/06/26 05:32:52;;;;;;;12.93;4.40;;;18.60;99.90;;;;;;4990265;28;20034;-63
2023/06/26 05:35:20;;;;;;;13.00;4.90;;;17.80;99.90;;;;;;4989826;28;20121;-63
2023/06/26 05:37:50;;;;;;;17.55;5.03;;;17.40;99.90;;;;;;4988124;28;20034;-63
2023/06/26 05:40:17;;;;;;;13.15;4.15;;;18.70;99.90;;;;;;4962382;28;20042;-63
2023/06/26 05:42:43;;;;;;;11.50;3.95;;;17.60;99.90;;;;;;4989777;28;20345;-63
2023/06/26 05:45:10;;;;;;;10.50;3.40;;;17.70;99.90;;;;;;4989342;28;20044;-63
2023/06/26 05:47:36;;;;;;;13.95;3.80;;;18.40;99.90;;;;;;4989249;28;20439;-63
2023/06/26 05:50:03;;;;;;;10.05;4.28;;;18.40;99.90;;;;;;4986239;28;20574;-63
2023/06/26 05:52:29;;;;;;;13.20;3.47;;;17.70;99.90;;;;;;4971933;28;20455;-63
2023/06/26 05:54:59;;;;;;;10.90;3.08;;;17.50;99.90;;;;;;4989418;28;20076;-63
2023/06/26 05:57:29;;;;;;;17.25;4.72;;;17.70;99.90;;;;;;4972536;28;20070;-63
2023/06/26 05:59:55;;;;;;;12.45;3.35;;;17.90;99.90;;;;;;4989691;28;20030;-63
2023/06/26 06:02:21;;;;;;;10.05;3.40;;;17.60;99.90;;;;;;4990634;28;20042;-63
2023/06/26 06:04:47;;;;;;;11.45;3.20;;;17.60;99.90;;;;;;4989794;28;20056;-63
2023/06/26 06:07:12;;;;;;;8.38;3.30;;;18.60;99.90;;;;;;4990820;28;20183;-64
2023/06/26 06:09:39;;;;;;;12.98;4.20;;;17.80;99.90;;;;;;4987872;28;20048;-63
2023/06/26 06:12:08;;;;;;;12.80;3.38;;;17.80;99.90;;;;;;4989522;28;20419;-63
2023/06/26 06:14:34;;;;;;;12.52;3.47;;;17.60;99.90;;;;;;4988230;28;20411;-63
2023/06/26 06:17:00;;;;;;;9.23;3.40;;;18.20;99.90;;;;;;4990533;28;20440;-63
2023/06/26 06:19:26;;;;;;;14.30;3.55;;;17.90;99.90;;;;;;4989904;28;20065;-63
2023/06/26 06:21:52;;;;;;;7.85;3.08;;;17.50;99.90;;;;;;4984413;28;20115;-63
2023/06/26 06:24:18;;;;;;;11.00;4.05;;;17.40;99.90;;;;;;4987000;28;20448;-63
2023/06/26 06:26:44;;;;;;;13.40;3.30;;;18.20;99.90;;;;;;4983798;28;20188;-63
2023/06/26 06:29:10;;;;;;;11.38;3.55;;;18.70;99.90;;;;;;4982817;28;20124;-63
2023/06/26 06:31:35;;;;;;;8.98;2.63;;;18.50;99.90;;;;;;4977060;28;20099;-65
2023/06/26 06:34:01;;;;;;;8.85;2.88;;;18.80;99.90;;;;;;4982095;28;20038;-65
2023/06/26 06:36:27;;;;;;;13.20;3.30;;;18.60;99.90;;;;;;4979151;28;20053;-66
2023/06/26 06:38:53;;;;;;;11.07;3.97;;;17.60;99.90;;;;;;4985029;28;20089;-64
2023/06/26 06:41:20;;;;;;;8.57;3.00;;;17.90;99.90;;;;;;4986246;28;20065;-64
2023/06/26 06:43:46;;;;;;;9.15;2.83;;;17.90;99.90;;;;;;4981372;28;20034;-63
2023/06/26 06:46:12;;;;;;;10.68;3.00;;;18.70;99.90;;;;;;4983048;28;20492;-63
2023/06/26 06:48:37;;;;;;;7.13;2.40;;;17.50;99.90;;;;;;4956851;28;20154;-62
2023/06/26 06:51:03;;;;;;;11.20;2.88;;;17.60;99.90;;;;;;4973949;28;20041;-63
2023/06/26 06:53:30;;;;;;;6.88;2.15;;;18.60;75.40;;;;;;4981650;28;20636;-64
2023/06/26 06:55:56;;;;;;;6.38;2.08;;;18.50;42.70;;;;;;4964530;28;20122;-64
2023/06/26 06:58:22;;;;;;;5.95;2.33;;;17.80;14.80;;;;;;4978849;28;20106;-63
2023/06/26 07:00:48;;;;;;;8.30;2.70;;;17.80;13.20;;;;;;4978927;28;20050;-64
2023/06/26 07:03:14;;;;;;;8.32;2.22;;;18.70;12.50;;;;;;4980938;28;20070;-64
2023/06/26 07:05:42;;;;;;;7.32;2.33;;;17.70;1.00;;;;;;4978491;28;20582;-64
2023/06/26 07:08:08;;;;;;;7.80;2.15;;;18.20;1.00;;;;;;4963495;28;20126;-64
2023/06/26 07:10:34;;;;;;;5.50;1.85;;;18.90;1.00;;;;;;4981820;28;20126;-61
2023/06/26 07:13:00;;;;;;;6.55;1.88;;;18.40;1.00;;;;;;4982943;28;20121;-62
2023/06/26 07:15:25;;;;;;;6.90;1.90;;;18.00;1.00;;;;;;4977237;28;20038;-63
2023/06/26 07:17:51;;;;;;;8.77;2.83;;;18.10;1.00;;;;;;4977802;28;20199;-63
2023/06/26 07:20:17;;;;;;;6.68;2.30;;;18.60;1.00;;;;;;4983075;28;20054;-63
2023/06/26 07:22:44;;;;;;;9.48;2.70;;;18.90;1.00;;;;;;4989165;28;20093;-62
2023/06/26 07:25:10;;;;;;;5.50;2.28;;;18.50;1.00;;;;;;4982865;28;20082;-65
2023/06/26 07:27:40;;;;;;;7.07;2.20;;;19.30;1.00;;;;;;4969558;28;20437;-64
2023/06/26 07:30:10;;;;;;;7.60;2.45;;;18.80;1.00;;;;;;4981405;28;20520;-62
2023/06/26 07:32:36;;;;;;;7.30;2.50;;;19.70;99.90;;;;;;4986883;28;20113;-64
2023/06/26 07:35:02;;;;;;;10.90;2.97;;;19.50;1.00;;;;;;4982898;28;20045;-67
2023/06/26 07:37:27;;;;;;;5.45;2.00;;;18.90;1.00;;;;;;4982429;28;20399;-64
2023/06/26 07:39:53;;;;;;;10.10;3.42;;;19.50;1.00;;;;;;4988694;28;20476;-65
2023/06/26 07:42:19;;;;;;;5.90;2.35;;;19.30;1.00;;;;;;4982339;28;20175;-65
2023/06/26 07:44:44;;;;;;;6.63;2.85;;;19.10;99.90;;;;;;4967839;28;20034;-65
2023/06/26 07:47:11;;;;;;;8.50;2.50;;;18.50;99.90;;;;;;4986431;28;20035;-64
2023/06/26 07:49:36;;;;;;;8.65;3.13;;;19.10;1.00;;;;;;4980794;28;20267;-64
2023/06/26 07:52:03;;;;;;;7.85;2.65;;;19.00;1.00;;;;;;4987111;28;20100;-63
2023/06/26 07:54:29;;;;;;;7.60;2.50;;;19.10;1.00;;;;;;4975423;28;20050;-63
2023/06/26 07:57:04;;;;;;;7.30;3.38;;;19.20;99.90;;;;;;4988440;28;20034;-65
2023/06/26 07:59:30;;;;;;;9.40;2.78;;;19.50;99.90;;;;;;4992559;28;20516;-63
2023/06/26 08:01:57;;;;;;;8.77;2.50;;;19.50;99.90;;;;;;4993515;28;20042;-64
2023/06/26 08:04:29;;;;;;;8.48;3.15;;;19.50;99.90;;;;;;4992722;28;20084;-66
2023/06/26 08:06:57;;;;;;;6.57;2.55;;;19.80;99.90;;;;;;4993157;28;20504;-65
2023/06/26 08:09:25;;;;;;;10.45;2.65;;;19.70;99.90;;;;;;4992730;28;20409;-64
2023/06/26 08:11:51;;;;;;;6.88;2.22;;;19.60;99.90;;;;;;4989634;28;20062;-63
2023/06/26 08:14:17;;;;;;;9.77;3.53;;;19.70;99.90;;;;;;4984346;28;20401;-64
2023/06/26 08:16:44;;;;;;;7.50;2.40;;;20.00;99.90;;;;;;4975016;28;20041;-65
2023/06/26 08:19:10;;;;;;;7.10;2.42;;;19.60;99.90;;;;;;4992652;28;20400;-64
2023/06/26 08:21:36;;;;;;;7.28;2.50;;;19.60;99.90;;;;;;4974172;28;20042;-62
2023/06/26 08:24:02;;;;;;;8.73;2.70;;;19.60;99.90;;;;;;4992771;28;20042;-63
2023/06/26 08:26:28;;;;;;;7.03;2.33;;;19.40;99.90;;;;;;4991953;28;20097;-64
2023/06/26 08:28:54;;;;;;;9.27;2.65;;;19.80;99.90;;;;;;4985131;28;20038;-65
2023/06/26 08:31:20;;;;;;;8.52;2.70;;;19.60;99.90;;;;;;4992279;28;20030;-64
2023/06/26 08:33:46;;;;;;;12.02;3.63;;;19.60;99.90;;;;;;4992648;28;20033;-64
2023/06/26 08:36:12;;;;;;;8.02;2.78;;;19.60;99.90;;;;;;4991829;28;20464;-63
2023/06/26 08:38:40;;;;;;;12.65;3.30;;;19.70;99.90;;;;;;4985108;28;20085;-63
2023/06/26 08:41:09;;;;;;;6.95;3.40;;;19.60;99.90;;;;;;4992126;28;20407;-64
2023/06/26 08:43:36;;;;;;;6.28;3.08;;;19.50;99.90;;;;;;4984811;28;20033;-64
2023/06/26 08:46:02;;;;;;;9.82;3.83;;;19.10;99.90;;;;;;4973280;28;20101;-64
2023/06/26 08:48:32;;;;;;;11.85;3.83;;;19.50;99.90;;;;;;4991928;28;20034;-66
2023/06/26 08:51:03;;;;;;;10.55;3.67;;;19.20;99.90;;;;;;4990288;28;20046;-64
2023/06/26 08:53:47;;;;;;;12.05;4.28;;;19.40;99.90;;;;;;4992619;28;20053;-65
2023/06/26 08:56:17;;;;;;;14.30;4.57;;;19.60;99.90;;;;;;4992283;28;20050;-66
2023/06/26 08:58:42;;;;;;;7.25;3.75;;;19.60;99.90;;;;;;4992727;28;20042;-66
2023/06/26 09:01:09;;;;;;;7.38;3.00;;;19.80;99.90;;;;;;4990011;28;20033;-63
2023/06/26 09:03:35;;;;;;;7.10;3.17;;;19.30;99.90;;;;;;4983427;28;20383;-63
2023/06/26 09:06:01;;;;;;;8.57;3.25;;;19.70;99.90;;;;;;4991764;28;20122;-63
2023/06/26 09:08:26;;;;;;;7.65;3.38;;;19.70;99.90;;;;;;4991727;28;20129;-63
2023/06/26 09:10:52;;;;;;;9.48;4.30;;;19.60;99.90;;;;;;4991766;28;20068;-65
2023/06/26 09:13:19;;;;;;;10.85;4.28;;;19.60;99.90;;;;;;4984586;28;20042;-65
2023/06/26 09:15:46;;;;;;;9.35;3.70;;;19.80;99.90;;;;;;4973093;28;20495;-64
2023/06/26 09:18:16;;;;;;;8.20;3.70;;;19.80;99.90;;;;;;4990792;28;20613;-65
2023/06/26 09:20:42;;;;;;;7.78;3.95;;;20.00;99.90;;;;;;4991696;28;20042;-65
2023/06/26 09:23:09;;;;;;;9.15;3.60;;;19.70;99.90;;;;;;4975192;28;20515;-64
2023/06/26 09:25:39;;;;;;;9.50;3.92;;;20.60;99.90;;;;;;4988512;28;20038;-64
2023/06/26 09:28:05;;;;;;;8.20;4.43;;;20.10;99.90;;;;;;4992203;28;20511;-63
2023/06/26 09:30:32;;;;;;;10.43;4.53;;;21.00;99.90;;;;;;4987092;28;20038;-62
2023/06/26 09:33:16;;;;;;;9.57;4.95;;;19.60;99.90;;;;;;4967059;28;20037;-62
2023/06/26 09:35:44;;;;;;;8.57;4.47;;;20.00;99.90;;;;;;4990070;28;20512;-62
2023/06/26 09:38:09;;;;;;;9.55;4.15;;;20.20;99.90;;;;;;4974824;28;20155;-63
2023/06/26 09:40:37;;;;;;;7.65;4.88;;;20.60;99.90;;;;;;4991238;28;20105;-63
2023/06/26 09:43:12;;;;;;;9.13;4.70;;;20.40;99.90;;;;;;4990475;28;20365;-62
2023/06/26 09:45:40;;;;;;;7.70;3.83;;;20.20;90.70;;;;;;4990694;28;20045;-64
2023/06/26 09:48:11;;;;;;;7.68;3.00;;;20.20;96.40;;;;;;4980910;28;20046;-63
2023/06/26 09:50:40;;;;;;;7.07;3.47;;;20.40;16.40;;;;;;4987892;28;20038;-63
2023/06/26 09:53:10;;;;;;;9.25;3.10;;;20.40;1.00;;;;;;4991677;28;20039;-64
2023/06/26 09:55:37;;;;;;;8.85;3.83;;;21.10;1.00;;;;;;4990255;28;20034;-64
2023/06/26 09:58:03;;;;;;;6.85;3.08;;;20.00;12.20;;;;;;4986671;28;20057;-63
2023/06/26 10:00:30;;;;;;;9.18;2.78;;;19.80;58.70;;;;;;4985700;28;20050;-63
2023/06/26 10:02:56;;;;;;;8.15;3.15;;;20.10;58.80;;;;;;4973429;28;20046;-63
2023/06/26 10:05:22;;;;;;;8.35;2.75;;;20.90;5.90;;;;;;4997016;28;20064;-61
2023/06/26 10:07:48;;;;;;;7.15;2.60;;;20.50;1.00;;;;;;4990820;28;20488;-63
2023/06/26 10:10:16;;;;;;;9.18;3.55;;;20.30;1.00;;;;;;4988872;28;20113;-62
2023/06/26 10:12:45;;;;;;;6.65;2.45;;;20.30;1.00;;;;;;4982668;28;20034;-62
2023/06/26 10:15:13;;;;;;;9.10;2.58;;;21.40;99.90;;;;;;4990491;28;20038;-62
2023/06/26 10:17:42;;;;;;;6.60;2.33;;;20.20;1.00;;;;;;4991227;28;20454;-62
2023/06/26 10:20:09;;;;;;;9.75;2.67;;;20.30;1.00;;;;;;4991331;28;20205;-63
2023/06/26 10:22:41;;;;;;;9.98;2.47;;;20.10;99.90;;;;;;4970021;28;20034;-62
2023/06/26 10:25:08;;;;;;;6.85;2.20;;;21.10;99.90;;;;;;4991510;28;20038;-63
2023/06/26 10:27:43;;;;;;;9.88;2.42;;;19.90;99.90;;;;;;4986331;28;20104;-63
2023/06/26 10:30:22;;;;;;;8.73;1.90;;;21.20;99.90;;;;;;4971991;28;20037;-62
2023/06/26 10:32:48;;;;;;;8.00;2.33;;;20.80;1.00;;;;;;4989753;28;20035;-62
2023/06/26 10:35:15;;;;;;;5.03;1.73;;;20.00;1.00;;;;;;4990736;28;20046;-62
2023/06/26 10:37:48;;;;;;;6.18;2.03;;;20.30;99.90;;;;;;4990105;28;20124;-62
2023/06/26 10:40:20;;;;;;;7.47;2.40;;;20.00;1.00;;;;;;4988176;28;20109;-62
2023/06/26 10:42:47;;;;;;;11.43;2.38;;;20.30;1.00;;;;;;4982559;28;20103;-62
2023/06/26 10:45:15;;;;;;;10.82;2.53;;;21.20;99.90;;;;;;4972275;28;20042;-62
2023/06/26 10:47:42;;;;;;;6.45;1.70;;;20.40;99.90;;;;;;4965612;28;20117;-62
2023/06/26 10:50:40;;;;;;;7.18;2.05;;;20.10;99.90;;;;;;4983177;28;20026;-62
2023/06/26 10:53:26;;;;;;;9.05;2.35;;;21.10;99.90;;;;;;4952547;28;20177;-62
2023/06/26 10:55:56;;;;;;;6.50;1.92;;;21.50;99.90;;;;;;4980500;28;20404;-62
2023/06/26 10:58:31;;;;;;;7.15;1.92;;;21.60;99.90;;;;;;4976963;28;20407;-62
2023/06/26 11:01:20;;;;;;;7.68;1.85;;;21.00;99.90;;;;;;4980522;28;20049;-62
2023/06/26 11:03:49;;;;;;;7.22;1.98;;;20.30;99.90;;;;;;4982897;28;20046;-62
2023/06/26 11:06:21;;;;;;;6.70;1.90;;;21.40;99.90;;;;;;4964190;28;20046;-62
2023/06/26 11:08:48;;;;;;;7.30;2.10;;;21.70;99.90;;;;;;4975604;28;20031;-64
2023/06/26 11:11:15;;;;;;;11.00;1.98;;;21.30;99.90;;;;;;4987046;28;20042;-63
2023/06/26 11:13:42;;;;;;;6.85;2.33;;;21.60;99.90;;;;;;4987968;28;20042;-61
2023/06/26 11:16:08;;;;;;;9.20;3.92;;;20.30;99.90;;;;;;4988574;28;20495;-63
2023/06/26 11:18:33;;;;;;;9.25;2.55;;;20.50;99.90;;;;;;4989241;28;20093;-61
2023/06/26 11:21:14;;;;;;;6.38;2.25;;;21.30;99.90;;;;;;4973107;28;20133;-63
2023/06/26 11:23:40;;;;;;;7.25;2.25;;;21.30;99.90;;;;;;4971083;28;20093;-63
2023/06/26 11:26:23;;;;;;;6.45;2.28;;;20.30;99.90;;;;;;4981367;28;20552;-61
2023/06/26 11:28:56;;;;;;;11.82;2.83;;;20.30;99.90;;;;;;4956494;28;20030;-62
2023/06/26 11:31:31;;;;;;;8.40;2.17;;;21.60;99.90;;;;;;4987544;28;20069;-60
2023/06/26 11:34:11;;;;;;;8.70;3.30;;;21.60;99.90;;;;;;4982216;28;20496;-62
2023/06/26 11:36:42;;;;;;;10.48;2.90;;;21.20;99.90;;;;;;4989759;28;20042;-63
2023/06/26 11:39:08;;;;;;;9.20;2.45;;;20.30;99.90;;;;;;4971944;28;20124;-62
2023/06/26 11:41:39;;;;;;;11.55;3.38;;;21.40;99.90;;;;;;4989412;28;20073;-62
2023/06/26 11:44:09;;;;;;;8.52;2.80;;;20.30;99.90;;;;;;4972505;28;20329;-62
2023/06/26 11:46:36;;;;;;;8.05;2.97;;;20.60;99.90;;;;;;4989056;28;20054;-61
2023/06/26 11:49:07;;;;;;;9.68;2.92;;;21.90;99.90;;;;;;4990024;28;20030;-63
2023/06/26 11:51:34;;;;;;;10.48;2.50;;;21.50;99.90;;;;;;4989244;28;20038;-62
2023/06/26 11:54:03;;;;;;;9.40;3.25;;;20.80;99.90;;;;;;4986770;28;20038;-64
2023/06/26 11:56:29;;;;;;;7.57;2.25;;;20.60;99.90;;;;;;4988956;28;20042;-63
2023/06/26 11:59:06;;;;;;;8.60;2.42;;;21.90;99.90;;;;;;4989564;28;20551;-64
2023/06/26 12:01:34;;;;;;;10.25;3.25;;;21.60;99.90;;;;;;4987545;28;20151;-63
2023/06/26 12:04:03;;;;;;;8.77;2.53;;;21.90;99.90;;;;;;4969467;28;20563;-64
2023/06/26 12:06:30;;;;;;;7.97;2.85;;;22.10;99.90;;;;;;4970627;28;20079;-64
2023/06/26 12:08:58;;;;;;;7.85;2.22;;;21.70;99.90;;;;;;4988534;28;20054;-64
2023/06/26 12:11:25;;;;;;;6.03;2.30;;;21.60;99.90;;;;;;4992280;28;20039;-67
2023/06/26 12:13:51;;;;;;;7.35;2.38;;;21.70;89.80;;;;;;4992707;28;20178;-64
2023/06/26 12:16:17;;;;;;;6.93;2.67;;;20.80;99.90;;;;;;4989674;28;20404;-66
2023/06/26 12:18:43;;;;;;;8.52;2.80;;;21.90;99.90;;;;;;4986273;28;20049;-64
2023/06/26 12:21:27;;;;;;;8.13;2.22;;;21.70;99.90;;;;;;4975796;28;20054;-63
2023/06/26 12:23:59;;;;;;;6.15;2.30;;;21.70;99.90;;;;;;4990447;28;20041;-62
2023/06/26 12:26:26;;;;;;;7.63;2.55;;;21.50;99.90;;;;;;4991318;28;20038;-62
2023/06/26 12:28:52;;;;;;;7.07;2.20;;;21.00;99.90;;;;;;4992700;28;20049;-63
2023/06/26 12:31:21;;;;;;;10.30;2.65;;;21.10;38.00;;;;;;4991507;28;20038;-63
2023/06/26 12:33:49;;;;;;;8.63;2.00;;;22.10;3.00;;;;;;4992888;28;20038;-62
2023/06/26 12:36:14;;;;;;;7.90;2.10;;;22.00;1.00;;;;;;4985833;28;20050;-63
2023/06/26 12:38:41;;;;;;;9.18;2.78;;;21.80;1.00;;;;;;4989878;28;20050;-63
2023/06/26 12:41:14;;;;;;;7.70;2.50;;;21.40;1.00;;;;;;4991437;28;20052;-63
2023/06/26 12:43:40;;;;;;;7.87;2.50;;;22.80;99.90;;;;;;4986493;28;20046;-62